sensor_id;sensor_type;location;lat;lon;timestamp;temperature;humidity
30893;DHT22;17595;50.884;4.346;2024-03-25T00:01:14;8.10;99.90
30893;DHT22;17595;50.884;4.346;2024-03-25T00:03:40;8.00;99.90
30893;DHT22;17595;50.884;4.346;2024-03-25T00:06:06;7.90;99.90
30893;DHT22;17595;50.884;4.346;2024-03-25T00:08:32;7.90;99.90
30893;DHT22;17595;50.884;4.346;2024-03-25T00:10:57;7.80;99.90
30893;DHT22;17595;50.884;4.346;2024-03-25T00:13:23;7.80;99.90
30893;DHT22;17595;50.884;4.346;2024-03-25T00:15:49;7.80;99.90
30893;DHT22;17595;50.884;4.346;2024-03-25T00:18:15;7.80;99.90
30893;DHT22;17595;50.884;4.346;2024-03-25T00:20:40;7.80;99.90
30893;DHT22;17595;50.884;4.346;2024-03-25T00:23:06;7.70;99.90
30893;DHT22;17595;50.884;4.346;2024-03-25T00:25:32;7.70;99.90
30893;DHT22;17595;50.884;4.346;2024-03-25T00:27:58;7.70;99.90
30893;DHT22;17595;50.884;4.346;2024-03-25T00:30:24;7.80;99.90
30893;DHT22;17595;50.884;4.346;2024-03-25T00:32:49;7.90;99.90
30893;DHT22;17595;50.884;4.346;2024-03-25T00:35:16;7.90;99.90
30893;DHT22;17595;50.884;4.346;2024-03-25T00:37:41;7.80;99.90
30893;DHT22;17595;50.884;4.346;2024-03-25T00:40:07;7.70;99.90
30893;DHT22;17595;50.884;4.346;2024-03-25T00:42:33;7.70;99.90
30893;DHT22;17595;50.884;4.346;2024-03-25T00:44:59;7.60;99.90
30893;DHT22;17595;50.884;4.346;2024-03-25T00:47:25;7.60;99.90
30893;DHT22;17595;50.884;4.346;2024-03-25T00:49:51;7.60;99.90
30893;DHT22;17595;50.884;4.346;2024-03-25T00:52:17;7.70;99.90
30893;DHT22;17595;50.884;4.346;2024-03-25T00:54:43;7.60;99.90
30893;DHT22;17595;50.884;4.346;2024-03-25T00:57:08;7.60;99.90
30893;DHT22;17595;50.884;4.346;2024-03-25T00:59:34;7.60;99.90
30893;DHT22;17595;50.884;4.346;2024-03-25T01:02:00;7.50;99.90
30893;DHT22;17595;50.884;4.346;2024-03-25T01:04:25;7.50;99.90
30893;DHT22;17595;50.884;4.346;2024-03-25T01:06:51;7.50;99.90
30893;DHT22;17595;50.884;4.346;2024-03-25T01:09:17;7.50;99.90
30893;DHT22;17595;50.884;4.346;2024-03-25T01:11:42;7.40;99.90
30893;DHT22;17595;50.884;4.346;2024-03-25T01:14:08;7.40;99.90
30893;DHT22;17595;50.884;4.346;2024-03-25T01:16:33;7.40;99.90
30893;DHT22;17595;50.884;4.346;2024-03-25T01:18:59;7.30;99.90
30893;DHT22;17595;50.884;4.346;2024-03-25T01:21:25;7.40;99.90
30893;DHT22;17595;50.884;4.346;2024-03-25T01:23:51;7.30;99.90
30893;DHT22;17595;50.884;4.346;2024-03-25T01:26:16;7.30;99.90
30893;DHT22;17595;50.884;4.346;2024-03-25T01:28:42;7.30;99.90
30893;DHT22;17595;50.884;4.346;2024-03-25T01:31:08;7.30;99.90
30893;DHT22;17595;50.884;4.346;2024-03-25T01:33:34;7.30;99.90
30893;DHT22;17595;50.884;4.346;2024-03-25T01:36:00;7.30;99.90
30893;DHT22;17595;50.884;4.346;2024-03-25T01:38:26;7.30;99.90
30893;DHT22;17595;50.884;4.346;2024-03-25T01:40:52;7.20;99.90
30893;DHT22;17595;50.884;4.346;2024-03-25T01:43:17;7.20;99.90
30893;DHT22;17595;50.884;4.346;2024-03-25T01:45:43;7.20;99.90
30893;DHT22;17595;50.884;4.346;2024-03-25T01:48:10;7.30;99.90
30893;DHT22;17595;50.884;4.346;2024-03-25T01:50:42;7.30;99.90
30893;DHT22;17595;50.884;4.346;2024-03-25T01:53:09;7.30;99.90
30893;DHT22;17595;50.884;4.346;2024-03-25T01:55:35;7.30;99.90
30893;DHT22;17595;50.884;4.346;2024-03-25T01:58:02;7.30;99.90
30893;DHT22;17595;50.884;4.346;2024-03-25T02:00:29;7.30;99.90
30893;DHT22;17595;50.884;4.346;2024-03-25T02:02:55;7.20;99.90
30893;DHT22;17595;50.884;4.346;2024-03-25T02:05:22;7.20;99.90
30893;DHT22;17595;50.884;4.346;2024-03-25T02:07:48;7.10;99.90
30893;DHT22;17595;50.884;4.346;2024-03-25T02:10:15;7.10;99.90
30893;DHT22;17595;50.884;4.346;2024-03-25T02:12:45;7.10;99.90
30893;DHT22;17595;50.884;4.346;2024-03-25T02:15:11;7.10;99.90
30893;DHT22;17595;50.884;4.346;2024-03-25T02:17:38;7.20;99.90
30893;DHT22;17595;50.884;4.346;2024-03-25T02:20:05;7.30;99.90
30893;DHT22;17595;50.884;4.346;2024-03-25T02:22:33;7.30;99.90
30893;DHT22;17595;50.884;4.346;2024-03-25T02:24:59;7.20;99.90
30893;DHT22;17595;50.884;4.346;2024-03-25T02:27:26;7.10;99.90
30893;DHT22;17595;50.884;4.346;2024-03-25T02:29:54;7.10;99.90
30893;DHT22;17595;50.884;4.346;2024-03-25T02:32:20;7.10;99.90
30893;DHT22;17595;50.884;4.346;2024-03-25T02:34:51;7.10;99.90
30893;DHT22;17595;50.884;4.346;2024-03-25T02:37:18;7.10;99.90
30893;DHT22;17595;50.884;4.346;2024-03-25T02:39:44;7.20;99.90
30893;DHT22;17595;50.884;4.346;2024-03-25T02:42:10;7.10;99.90
30893;DHT22;17595;50.884;4.346;2024-03-25T02:44:36;7.10;99.90
30893;DHT22;17595;50.884;4.346;2024-03-25T02:47:03;7.00;99.90
30893;DHT22;17595;50.884;4.346;2024-03-25T02:49:29;7.00;99.90
30893;DHT22;17595;50.884;4.346;2024-03-25T02:51:55;7.00;99.90
30893;DHT22;17595;50.884;4.346;2024-03-25T02:54:21;7.00;99.90
30893;DHT22;17595;50.884;4.346;2024-03-25T02:56:47;7.00;99.90
30893;DHT22;17595;50.884;4.346;2024-03-25T02:59:12;6.90;99.90
30893;DHT22;17595;50.884;4.346;2024-03-25T03:01:38;7.00;99.90
30893;DHT22;17595;50.884;4.346;2024-03-25T03:04:04;7.00;99.90
30893;DHT22;17595;50.884;4.346;2024-03-25T03:06:29;7.00;99.90
30893;DHT22;17595;50.884;4.346;2024-03-25T03:08:55;7.10;99.90
30893;DHT22;17595;50.884;4.346;2024-03-25T03:11:21;7.10;99.90
30893;DHT22;17595;50.884;4.346;2024-03-25T03:13:47;7.10;99.90
30893;DHT22;17595;50.884;4.346;2024-03-25T03:16:13;7.10;99.90
30893;DHT22;17595;50.884;4.346;2024-03-25T03:18:39;7.10;99.90
30893;DHT22;17595;50.884;4.346;2024-03-25T03:21:05;7.20;99.90
30893;DHT22;17595;50.884;4.346;2024-03-25T03:23:31;7.20;99.90
30893;DHT22;17595;50.884;4.346;2024-03-25T03:25:56;7.20;99.90
30893;DHT22;17595;50.884;4.346;2024-03-25T03:28:25;7.20;99.90
30893;DHT22;17595;50.884;4.346;2024-03-25T03:30:51;7.30;99.90
30893;DHT22;17595;50.884;4.346;2024-03-25T03:33:16;7.40;99.90
30893;DHT22;17595;50.884;4.346;2024-03-25T03:35:43;7.50;99.90
30893;DHT22;17595;50.884;4.346;2024-03-25T03:38:08;7.70;99.90
30893;DHT22;17595;50.884;4.346;2024-03-25T03:40:34;7.70;99.90
30893;DHT22;17595;50.884;4.346;2024-03-25T03:42:59;7.80;99.90
30893;DHT22;17595;50.884;4.346;2024-03-25T03:45:25;7.70;99.90
30893;DHT22;17595;50.884;4.346;2024-03-25T03:47:51;7.70;99.90
30893;DHT22;17595;50.884;4.346;2024-03-25T03:50:17;7.80;99.90
30893;DHT22;17595;50.884;4.346;2024-03-25T03:52:42;7.90;99.90
30893;DHT22;17595;50.884;4.346;2024-03-25T03:55:08;7.90;99.90
30893;DHT22;17595;50.884;4.346;2024-03-25T03:57:34;8.00;99.90
30893;DHT22;17595;50.884;4.346;2024-03-25T04:00:00;8.10;99.90
30893;DHT22;17595;50.884;4.346;2024-03-25T04:02:28;8.10;99.90
30893;DHT22;17595;50.884;4.346;2024-03-25T04:04:54;8.10;99.90
30893;DHT22;17595;50.884;4.346;2024-03-25T04:07:20;8.10;99.90
30893;DHT22;17595;50.884;4.346;2024-03-25T04:09:48;8.10;99.90
30893;DHT22;17595;50.884;4.346;2024-03-25T04:12:14;8.10;99.90
30893;DHT22;17595;50.884;4.346;2024-03-25T04:14:40;8.10;99.90
30893;DHT22;17595;50.884;4.346;2024-03-25T04:17:05;8.10;99.90
30893;DHT22;17595;50.884;4.346;2024-03-25T04:19:31;8.10;99.90
30893;DHT22;17595;50.884;4.346;2024-03-25T04:21:57;8.10;99.90
30893;DHT22;17595;50.884;4.346;2024-03-25T04:24:22;8.10;99.90
30893;DHT22;17595;50.884;4.346;2024-03-25T04:26:49;8.20;99.90
30893;DHT22;17595;50.884;4.346;2024-03-25T04:29:16;8.20;99.90
30893;DHT22;17595;50.884;4.346;2024-03-25T04:31:41;8.20;99.90
30893;DHT22;17595;50.884;4.346;2024-03-25T04:34:07;8.20;99.90
30893;DHT22;17595;50.884;4.346;2024-03-25T04:36:33;8.20;99.90
30893;DHT22;17595;50.884;4.346;2024-03-25T04:38:58;8.20;99.90
30893;DHT22;17595;50.884;4.346;2024-03-25T04:41:24;8.20;99.90
30893;DHT22;17595;50.884;4.346;2024-03-25T04:43:49;8.10;99.90
30893;DHT22;17595;50.884;4.346;2024-03-25T04:46:15;8.00;99.90
30893;DHT22;17595;50.884;4.346;2024-03-25T04:48:41;7.90;99.90
30893;DHT22;17595;50.884;4.346;2024-03-25T04:51:07;7.80;99.90
30893;DHT22;17595;50.884;4.346;2024-03-25T04:53:34;7.80;99.90
30893;DHT22;17595;50.884;4.346;2024-03-25T04:56:00;7.70;99.90
30893;DHT22;17595;50.884;4.346;2024-03-25T04:58:26;7.70;99.90
30893;DHT22;17595;50.884;4.346;2024-03-25T05:00:51;7.80;99.90
30893;DHT22;17595;50.884;4.346;2024-03-25T05:03:17;7.90;99.90
30893;DHT22;17595;50.884;4.346;2024-03-25T05:05:42;7.80;99.90
30893;DHT22;17595;50.884;4.346;2024-03-25T05:08:08;7.70;99.90
30893;DHT22;17595;50.884;4.346;2024-03-25T05:10:34;7.70;99.90
30893;DHT22;17595;50.884;4.346;2024-03-25T05:12:59;7.60;99.90
30893;DHT22;17595;50.884;4.346;2024-03-25T05:15:25;7.60;99.90
30893;DHT22;17595;50.884;4.346;2024-03-25T05:17:51;7.50;99.90
30893;DHT22;17595;50.884;4.346;2024-03-25T05:20:16;7.50;99.90
30893;DHT22;17595;50.884;4.346;2024-03-25T05:22:42;7.50;99.90
30893;DHT22;17595;50.884;4.346;2024-03-25T05:25:08;7.40;99.90
30893;DHT22;17595;50.884;4.346;2024-03-25T05:27:34;7.40;99.90
30893;DHT22;17595;50.884;4.346;2024-03-25T05:29:59;7.50;99.90
30893;DHT22;17595;50.884;4.346;2024-03-25T05:32:25;7.50;99.90
30893;DHT22;17595;50.884;4.346;2024-03-25T05:34:52;7.60;99.90
30893;DHT22;17595;50.884;4.346;2024-03-25T05:37:18;7.70;99.90
30893;DHT22;17595;50.884;4.346;2024-03-25T05:39:43;7.70;99.90
30893;DHT22;17595;50.884;4.346;2024-03-25T05:42:09;7.70;99.90
30893;DHT22;17595;50.884;4.346;2024-03-25T05:44:35;7.60;99.90
30893;DHT22;17595;50.884;4.346;2024-03-25T05:47:00;7.60;99.90
30893;DHT22;17595;50.884;4.346;2024-03-25T05:49:26;7.60;99.90
30893;DHT22;17595;50.884;4.346;2024-03-25T05:51:52;7.60;99.90
30893;DHT22;17595;50.884;4.346;2024-03-25T05:54:17;7.60;99.90
30893;DHT22;17595;50.884;4.346;2024-03-25T05:56:43;7.70;99.90
30893;DHT22;17595;50.884;4.346;2024-03-25T05:59:08;7.60;99.90
30893;DHT22;17595;50.884;4.346;2024-03-25T06:01:34;7.60;99.90
30893;DHT22;17595;50.884;4.346;2024-03-25T06:04:03;7.60;99.90
30893;DHT22;17595;50.884;4.346;2024-03-25T06:06:29;7.70;99.90
30893;DHT22;17595;50.884;4.346;2024-03-25T06:08:55;7.70;99.90
30893;DHT22;17595;50.884;4.346;2024-03-25T06:11:20;7.80;99.90
30893;DHT22;17595;50.884;4.346;2024-03-25T06:13:46;7.90;99.90
30893;DHT22;17595;50.884;4.346;2024-03-25T06:16:15;8.00;99.90
30893;DHT22;17595;50.884;4.346;2024-03-25T06:18:41;8.10;99.90
30893;DHT22;17595;50.884;4.346;2024-03-25T06:21:06;8.20;99.90
30893;DHT22;17595;50.884;4.346;2024-03-25T06:23:32;8.30;99.90
30893;DHT22;17595;50.884;4.346;2024-03-25T06:25:58;8.30;99.90
30893;DHT22;17595;50.884;4.346;2024-03-25T06:28:24;8.40;99.90
30893;DHT22;17595;50.884;4.346;2024-03-25T06:30:51;8.50;99.90
30893;DHT22;17595;50.884;4.346;2024-03-25T06:33:36;8.50;99.90
30893;DHT22;17595;50.884;4.346;2024-03-25T06:36:41;8.60;99.90
30893;DHT22;17595;50.884;4.346;2024-03-25T06:39:07;8.70;99.90
30893;DHT22;17595;50.884;4.346;2024-03-25T06:41:32;8.70;99.90
30893;DHT22;17595;50.884;4.346;2024-03-25T06:43:58;8.80;99.90
30893;DHT22;17595;50.884;4.346;2024-03-25T06:46:24;8.80;99.90
30893;DHT22;17595;50.884;4.346;2024-03-25T06:48:49;8.90;99.90
30893;DHT22;17595;50.884;4.346;2024-03-25T06:51:16;8.90;99.90
30893;DHT22;17595;50.884;4.346;2024-03-25T06:53:42;9.00;99.90
30893;DHT22;17595;50.884;4.346;2024-03-25T06:56:08;9.00;99.90
30893;DHT22;17595;50.884;4.346;2024-03-25T06:58:34;9.00;99.90
30893;DHT22;17595;50.884;4.346;2024-03-25T07:01:07;9.10;99.90
30893;DHT22;17595;50.884;4.346;2024-03-25T07:03:34;9.20;99.90
30893;DHT22;17595;50.884;4.346;2024-03-25T07:06:01;9.20;99.90
30893;DHT22;17595;50.884;4.346;2024-03-25T07:08:27;9.20;99.90
30893;DHT22;17595;50.884;4.346;2024-03-25T07:10:54;9.20;99.90
30893;DHT22;17595;50.884;4.346;2024-03-25T07:13:20;9.30;99.90
30893;DHT22;17595;50.884;4.346;2024-03-25T07:15:46;9.40;99.90
30893;DHT22;17595;50.884;4.346;2024-03-25T07:18:12;9.40;99.90
30893;DHT22;17595;50.884;4.346;2024-03-25T07:20:44;9.50;99.90
30893;DHT22;17595;50.884;4.346;2024-03-25T07:23:11;9.50;99.90
30893;DHT22;17595;50.884;4.346;2024-03-25T07:25:36;9.60;99.90
30893;DHT22;17595;50.884;4.346;2024-03-25T07:28:03;9.60;99.90
30893;DHT22;17595;50.884;4.346;2024-03-25T07:30:29;9.70;99.90
30893;DHT22;17595;50.884;4.346;2024-03-25T07:32:55;9.80;99.90
30893;DHT22;17595;50.884;4.346;2024-03-25T07:35:21;9.90;99.90
30893;DHT22;17595;50.884;4.346;2024-03-25T07:37:47;10.00;99.90
30893;DHT22;17595;50.884;4.346;2024-03-25T07:40:12;10.00;99.90
30893;DHT22;17595;50.884;4.346;2024-03-25T07:42:38;10.10;99.90
30893;DHT22;17595;50.884;4.346;2024-03-25T07:45:05;10.20;99.90
30893;DHT22;17595;50.884;4.346;2024-03-25T07:47:32;10.20;99.90
30893;DHT22;17595;50.884;4.346;2024-03-25T07:49:58;10.20;99.90
30893;DHT22;17595;50.884;4.346;2024-03-25T07:52:25;10.30;99.90
30893;DHT22;17595;50.884;4.346;2024-03-25T07:54:51;10.30;99.90
30893;DHT22;17595;50.884;4.346;2024-03-25T07:57:17;10.30;99.90
30893;DHT22;17595;50.884;4.346;2024-03-25T07:59:43;10.30;99.90
30893;DHT22;17595;50.884;4.346;2024-03-25T08:02:09;10.40;99.90
30893;DHT22;17595;50.884;4.346;2024-03-25T08:04:34;10.50;99.90
30893;DHT22;17595;50.884;4.346;2024-03-25T08:07:00;10.40;99.90
30893;DHT22;17595;50.884;4.346;2024-03-25T08:09:26;10.40;99.90
30893;DHT22;17595;50.884;4.346;2024-03-25T08:11:51;10.40;99.90
30893;DHT22;17595;50.884;4.346;2024-03-25T08:14:17;10.30;99.90
30893;DHT22;17595;50.884;4.346;2024-03-25T08:16:43;10.40;99.90
30893;DHT22;17595;50.884;4.346;2024-03-25T08:19:09;10.40;99.90
30893;DHT22;17595;50.884;4.346;2024-03-25T08:21:34;10.50;99.90
30893;DHT22;17595;50.884;4.346;2024-03-25T08:24:00;10.60;99.90
30893;DHT22;17595;50.884;4.346;2024-03-25T08:26:25;10.50;99.90
30893;DHT22;17595;50.884;4.346;2024-03-25T08:28:51;10.50;99.90
30893;DHT22;17595;50.884;4.346;2024-03-25T08:31:17;10.50;99.90
30893;DHT22;17595;50.884;4.346;2024-03-25T08:33:43;10.50;99.90
30893;DHT22;17595;50.884;4.346;2024-03-25T08:36:08;10.50;99.90
30893;DHT22;17595;50.884;4.346;2024-03-25T08:38:34;10.60;99.90
30893;DHT22;17595;50.884;4.346;2024-03-25T08:41:00;10.60;99.90
30893;DHT22;17595;50.884;4.346;2024-03-25T08:43:26;10.60;99.90
30893;DHT22;17595;50.884;4.346;2024-03-25T08:45:51;10.70;99.90
30893;DHT22;17595;50.884;4.346;2024-03-25T08:48:17;10.80;99.90
30893;DHT22;17595;50.884;4.346;2024-03-25T08:50:43;10.90;99.90
30893;DHT22;17595;50.884;4.346;2024-03-25T08:53:08;10.90;99.90
30893;DHT22;17595;50.884;4.346;2024-03-25T08:55:34;10.90;99.90
30893;DHT22;17595;50.884;4.346;2024-03-25T08:58:00;10.90;99.90
30893;DHT22;17595;50.884;4.346;2024-03-25T09:00:26;10.70;99.90
30893;DHT22;17595;50.884;4.346;2024-03-25T09:02:53;10.80;99.90
30893;DHT22;17595;50.884;4.346;2024-03-25T09:05:19;10.90;99.90
30893;DHT22;17595;50.884;4.346;2024-03-25T09:07:45;11.00;99.90
30893;DHT22;17595;50.884;4.346;2024-03-25T09:10:15;11.10;99.90
30893;DHT22;17595;50.884;4.346;2024-03-25T09:13:00;11.10;99.90
30893;DHT22;17595;50.884;4.346;2024-03-25T09:15:26;11.10;99.90
30893;DHT22;17595;50.884;4.346;2024-03-25T09:17:51;11.00;99.90
30893;DHT22;17595;50.884;4.346;2024-03-25T09:20:17;11.10;99.90
30893;DHT22;17595;50.884;4.346;2024-03-25T09:22:43;11.20;99.90
30893;DHT22;17595;50.884;4.346;2024-03-25T09:25:09;11.30;99.90
30893;DHT22;17595;50.884;4.346;2024-03-25T09:27:35;11.30;99.90
30893;DHT22;17595;50.884;4.346;2024-03-25T09:30:01;11.40;99.90
30893;DHT22;17595;50.884;4.346;2024-03-25T09:32:29;11.20;99.90
30893;DHT22;17595;50.884;4.346;2024-03-25T09:34:57;11.30;99.90
30893;DHT22;17595;50.884;4.346;2024-03-25T09:37:23;11.40;99.90
30893;DHT22;17595;50.884;4.346;2024-03-25T09:39:48;11.50;99.90
30893;DHT22;17595;50.884;4.346;2024-03-25T09:42:15;11.60;99.90
30893;DHT22;17595;50.884;4.346;2024-03-25T09:44:43;11.60;99.90
30893;DHT22;17595;50.884;4.346;2024-03-25T09:47:10;11.70;99.90
30893;DHT22;17595;50.884;4.346;2024-03-25T09:49:40;11.70;99.90
30893;DHT22;17595;50.884;4.346;2024-03-25T09:52:08;11.60;99.90
30893;DHT22;17595;50.884;4.346;2024-03-25T09:54:34;11.20;99.90
30893;DHT22;17595;50.884;4.346;2024-03-25T09:57:01;11.10;99.90
30893;DHT22;17595;50.884;4.346;2024-03-25T09:59:27;11.20;99.90
30893;DHT22;17595;50.884;4.346;2024-03-25T10:01:54;11.20;99.90
30893;DHT22;17595;50.884;4.346;2024-03-25T10:04:20;11.40;99.90
30893;DHT22;17595;50.884;4.346;2024-03-25T10:06:45;11.50;99.90
30893;DHT22;17595;50.884;4.346;2024-03-25T10:09:11;11.50;99.90
30893;DHT22;17595;50.884;4.346;2024-03-25T10:11:37;11.70;99.90
30893;DHT22;17595;50.884;4.346;2024-03-25T10:14:03;11.80;99.90
30893;DHT22;17595;50.884;4.346;2024-03-25T10:16:29;11.90;99.90
30893;DHT22;17595;50.884;4.346;2024-03-25T10:18:55;12.00;99.90
30893;DHT22;17595;50.884;4.346;2024-03-25T10:21:21;12.00;99.90
30893;DHT22;17595;50.884;4.346;2024-03-25T10:23:48;12.10;99.90
30893;DHT22;17595;50.884;4.346;2024-03-25T10:26:33;12.00;99.90
30893;DHT22;17595;50.884;4.346;2024-03-25T10:29:05;12.10;99.90
30893;DHT22;17595;50.884;4.346;2024-03-25T10:31:34;12.20;99.90
30893;DHT22;17595;50.884;4.346;2024-03-25T10:34:00;12.10;99.90
30893;DHT22;17595;50.884;4.346;2024-03-25T10:36:25;12.10;99.90
30893;DHT22;17595;50.884;4.346;2024-03-25T10:39:02;11.90;99.90
30893;DHT22;17595;50.884;4.346;2024-03-25T10:41:29;11.80;99.90
30893;DHT22;17595;50.884;4.346;2024-03-25T10:43:55;11.80;99.90
30893;DHT22;17595;50.884;4.346;2024-03-25T10:46:23;12.00;99.90
30893;DHT22;17595;50.884;4.346;2024-03-25T10:49:20;12.10;99.90
30893;DHT22;17595;50.884;4.346;2024-03-25T10:51:50;12.40;99.90
30893;DHT22;17595;50.884;4.346;2024-03-25T10:54:16;12.40;99.90
30893;DHT22;17595;50.884;4.346;2024-03-25T10:56:43;12.40;99.90
30893;DHT22;17595;50.884;4.346;2024-03-25T10:59:10;12.60;99.90
30893;DHT22;17595;50.884;4.346;2024-03-25T11:01:38;12.50;99.90
30893;DHT22;17595;50.884;4.346;2024-03-25T11:04:04;12.60;99.90
30893;DHT22;17595;50.884;4.346;2024-03-25T11:06:31;12.90;99.90
30893;DHT22;17595;50.884;4.346;2024-03-25T11:08:59;13.00;99.90
30893;DHT22;17595;50.884;4.346;2024-03-25T11:11:32;13.00;99.90
30893;DHT22;17595;50.884;4.346;2024-03-25T11:13:58;13.20;99.90
30893;DHT22;17595;50.884;4.346;2024-03-25T11:16:31;13.30;99.90
30893;DHT22;17595;50.884;4.346;2024-03-25T11:19:03;13.30;99.90
30893;DHT22;17595;50.884;4.346;2024-03-25T11:21:29;13.30;99.90
30893;DHT22;17595;50.884;4.346;2024-03-25T11:23:54;13.40;99.90
30893;DHT22;17595;50.884;4.346;2024-03-25T11:26:22;13.60;99.90
30893;DHT22;17595;50.884;4.346;2024-03-25T11:28:53;13.60;99.90
30893;DHT22;17595;50.884;4.346;2024-03-25T11:31:20;13.70;99.90
30893;DHT22;17595;50.884;4.346;2024-03-25T11:33:47;13.70;99.90
30893;DHT22;17595;50.884;4.346;2024-03-25T11:36:13;13.80;99.90
30893;DHT22;17595;50.884;4.346;2024-03-25T11:38:40;13.70;99.90
30893;DHT22;17595;50.884;4.346;2024-03-25T11:41:07;13.90;99.90
30893;DHT22;17595;50.884;4.346;2024-03-25T11:43:33;13.80;99.90
30893;DHT22;17595;50.884;4.346;2024-03-25T11:45:59;14.10;99.90
30893;DHT22;17595;50.884;4.346;2024-03-25T11:48:26;14.50;99.90
30893;DHT22;17595;50.884;4.346;2024-03-25T11:50:51;14.60;99.90
30893;DHT22;17595;50.884;4.346;2024-03-25T11:53:17;14.80;99.90
30893;DHT22;17595;50.884;4.346;2024-03-25T11:55:47;14.60;99.90
30893;DHT22;17595;50.884;4.346;2024-03-25T11:58:14;14.80;99.90
30893;DHT22;17595;50.884;4.346;2024-03-25T12:00:46;14.90;99.90
30893;DHT22;17595;50.884;4.346;2024-03-25T12:03:15;14.90;99.90
30893;DHT22;17595;50.884;4.346;2024-03-25T12:05:44;14.90;99.90
30893;DHT22;17595;50.884;4.346;2024-03-25T12:08:10;14.90;99.90
30893;DHT22;17595;50.884;4.346;2024-03-25T12:10:39;14.70;99.90
30893;DHT22;17595;50.884;4.346;2024-03-25T12:13:25;14.90;99.90
30893;DHT22;17595;50.884;4.346;2024-03-25T12:15:51;15.10;99.90
30893;DHT22;17595;50.884;4.346;2024-03-25T12:18:18;15.40;99.90
30893;DHT22;17595;50.884;4.346;2024-03-25T12:20:46;15.40;99.90
30893;DHT22;17595;50.884;4.346;2024-03-25T12:23:12;15.40;99.90
30893;DHT22;17595;50.884;4.346;2024-03-25T12:25:37;15.30;99.90
30893;DHT22;17595;50.884;4.346;2024-03-25T12:28:13;15.40;99.90
30893;DHT22;17595;50.884;4.346;2024-03-25T12:30:55;15.60;99.90
30893;DHT22;17595;50.884;4.346;2024-03-25T12:33:24;15.60;99.90
30893;DHT22;17595;50.884;4.346;2024-03-25T12:35:50;15.70;99.90
30893;DHT22;17595;50.884;4.346;2024-03-25T12:38:26;15.70;99.90
30893;DHT22;17595;50.884;4.346;2024-03-25T12:40:52;15.80;99.90
30893;DHT22;17595;50.884;4.346;2024-03-25T12:43:18;15.90;99.90
30893;DHT22;17595;50.884;4.346;2024-03-25T12:45:44;15.80;99.90
30893;DHT22;17595;50.884;4.346;2024-03-25T12:48:10;15.80;99.90
30893;DHT22;17595;50.884;4.346;2024-03-25T12:50:36;15.70;99.90
30893;DHT22;17595;50.884;4.346;2024-03-25T12:53:02;15.70;99.90
30893;DHT22;17595;50.884;4.346;2024-03-25T12:55:29;15.80;99.90
30893;DHT22;17595;50.884;4.346;2024-03-25T12:57:55;15.80;99.90
30893;DHT22;17595;50.884;4.346;2024-03-25T13:00:21;15.80;99.90
30893;DHT22;17595;50.884;4.346;2024-03-25T13:02:46;15.90;99.90
30893;DHT22;17595;50.884;4.346;2024-03-25T13:05:12;15.80;99.90
30893;DHT22;17595;50.884;4.346;2024-03-25T13:07:38;15.80;99.90
30893;DHT22;17595;50.884;4.346;2024-03-25T13:10:04;15.80;99.90
30893;DHT22;17595;50.884;4.346;2024-03-25T13:12:30;15.70;99.90
30893;DHT22;17595;50.884;4.346;2024-03-25T13:14:56;15.70;99.90
30893;DHT22;17595;50.884;4.346;2024-03-25T13:17:24;15.50;99.90
30893;DHT22;17595;50.884;4.346;2024-03-25T13:19:50;15.40;99.90
30893;DHT22;17595;50.884;4.346;2024-03-25T13:22:16;15.10;99.90
30893;DHT22;17595;50.884;4.346;2024-03-25T13:24:41;15.10;99.90
30893;DHT22;17595;50.884;4.346;2024-03-25T13:27:07;15.00;99.90
30893;DHT22;17595;50.884;4.346;2024-03-25T13:29:33;15.10;99.90
30893;DHT22;17595;50.884;4.346;2024-03-25T13:32:02;15.20;99.90
30893;DHT22;17595;50.884;4.346;2024-03-25T13:34:27;14.90;99.90
30893;DHT22;17595;50.884;4.346;2024-03-25T13:36:53;14.70;99.90
30893;DHT22;17595;50.884;4.346;2024-03-25T13:39:19;14.80;99.90
30893;DHT22;17595;50.884;4.346;2024-03-25T13:41:44;15.00;99.90
30893;DHT22;17595;50.884;4.346;2024-03-25T13:44:11;15.00;99.90
30893;DHT22;17595;50.884;4.346;2024-03-25T13:46:37;15.20;99.90
30893;DHT22;17595;50.884;4.346;2024-03-25T13:49:02;15.30;99.90
30893;DHT22;17595;50.884;4.346;2024-03-25T13:51:28;15.30;99.90
30893;DHT22;17595;50.884;4.346;2024-03-25T13:53:54;15.40;99.90
30893;DHT22;17595;50.884;4.346;2024-03-25T13:56:19;15.30;99.90
30893;DHT22;17595;50.884;4.346;2024-03-25T13:58:45;15.20;99.90
30893;DHT22;17595;50.884;4.346;2024-03-25T14:01:11;15.20;99.90
30893;DHT22;17595;50.884;4.346;2024-03-25T14:03:36;15.20;99.90
30893;DHT22;17595;50.884;4.346;2024-03-25T14:06:03;15.10;99.90
30893;DHT22;17595;50.884;4.346;2024-03-25T14:08:29;15.20;99.90
30893;DHT22;17595;50.884;4.346;2024-03-25T14:11:02;15.10;99.90
30893;DHT22;17595;50.884;4.346;2024-03-25T14:13:28;15.20;99.90
30893;DHT22;17595;50.884;4.346;2024-03-25T14:15:54;15.10;99.90
30893;DHT22;17595;50.884;4.346;2024-03-25T14:18:20;15.20;99.90
30893;DHT22;17595;50.884;4.346;2024-03-25T14:20:45;15.10;99.90
30893;DHT22;17595;50.884;4.346;2024-03-25T14:23:12;15.20;99.90
30893;DHT22;17595;50.884;4.346;2024-03-25T14:25:38;15.30;99.90
30893;DHT22;17595;50.884;4.346;2024-03-25T14:28:04;15.40;99.90
30893;DHT22;17595;50.884;4.346;2024-03-25T14:30:29;15.40;99.90
30893;DHT22;17595;50.884;4.346;2024-03-25T14:32:55;15.40;99.90
30893;DHT22;17595;50.884;4.346;2024-03-25T14:35:21;15.50;99.90
30893;DHT22;17595;50.884;4.346;2024-03-25T14:37:47;15.50;99.90
30893;DHT22;17595;50.884;4.346;2024-03-25T14:40:14;15.50;99.90
30893;DHT22;17595;50.884;4.346;2024-03-25T14:42:39;15.60;99.90
30893;DHT22;17595;50.884;4.346;2024-03-25T14:45:05;15.60;99.90
30893;DHT22;17595;50.884;4.346;2024-03-25T14:47:32;15.70;99.90
30893;DHT22;17595;50.884;4.346;2024-03-25T14:49:58;15.70;99.90
30893;DHT22;17595;50.884;4.346;2024-03-25T14:52:24;15.60;99.90
30893;DHT22;17595;50.884;4.346;2024-03-25T14:54:50;15.60;99.90
30893;DHT22;17595;50.884;4.346;2024-03-25T14:57:16;15.60;99.90
30893;DHT22;17595;50.884;4.346;2024-03-25T14:59:42;15.60;99.90
30893;DHT22;17595;50.884;4.346;2024-03-25T15:02:08;15.50;99.90
30893;DHT22;17595;50.884;4.346;2024-03-25T15:04:38;15.40;99.90
30893;DHT22;17595;50.884;4.346;2024-03-25T15:07:10;15.40;99.90
30893;DHT22;17595;50.884;4.346;2024-03-25T15:09:36;15.40;99.90
30893;DHT22;17595;50.884;4.346;2024-03-25T15:12:01;15.30;99.90
30893;DHT22;17595;50.884;4.346;2024-03-25T15:14:30;15.30;99.90
30893;DHT22;17595;50.884;4.346;2024-03-25T15:16:59;15.20;99.90
30893;DHT22;17595;50.884;4.346;2024-03-25T15:19:26;15.10;99.90
30893;DHT22;17595;50.884;4.346;2024-03-25T15:21:52;15.20;99.90
30893;DHT22;17595;50.884;4.346;2024-03-25T15:24:17;15.20;99.90
30893;DHT22;17595;50.884;4.346;2024-03-25T15:26:43;15.30;99.90
30893;DHT22;17595;50.884;4.346;2024-03-25T15:29:09;15.30;99.90
30893;DHT22;17595;50.884;4.346;2024-03-25T15:31:35;15.40;99.90
30893;DHT22;17595;50.884;4.346;2024-03-25T15:34:01;15.40;99.90